sensor_id;sensor_type;location;lat;lon;timestamp;pressure;altitude;pressure_sealevel;temperature;humidity
64933;BME280;51446;53.850;10.662;2022-12-07T00:02:22;101063.34;;;1.80;100.00
64933;BME280;51446;53.850;10.662;2022-12-07T00:04:48;101055.63;;;1.97;100.00
64933;BME280;51446;53.850;10.662;2022-12-07T00:07:14;101060.50;;;2.07;100.00
64933;BME280;51446;53.850;10.662;2022-12-07T00:09:39;101058.28;;;2.30;100.00
64933;BME280;51446;53.850;10.662;2022-12-07T00:12:06;101063.31;;;2.12;100.00
64933;BME280;51446;53.850;10.662;2022-12-07T00:14:32;101045.56;;;2.18;100.00
64933;BME280;51446;53.850;10.662;2022-12-07T00:16:57;101046.94;;;2.28;100.00
64933;BME280;51446;53.850;10.662;2022-12-07T00:19:22;101036.75;;;2.47;100.00
64933;BME280;51446;53.850;10.662;2022-12-07T00:21:47;101044.50;;;2.14;100.00
64933;BME280;51446;53.850;10.662;2022-12-07T00:24:13;101027.19;;;2.13;100.00
64933;BME280;51446;53.850;10.662;2022-12-07T00:26:40;101035.53;;;2.24;100.00
64933;BME280;51446;53.850;10.662;2022-12-07T00:29:18;101030.59;;;2.29;100.00
64933;BME280;51446;53.850;10.662;2022-12-07T00:31:45;101032.19;;;2.10;100.00
64933;BME280;51446;53.850;10.662;2022-12-07T00:34:16;101025.75;;;2.18;100.00
64933;BME280;51446;53.850;10.662;2022-12-07T00:36:42;101021.41;;;2.34;100.00
64933;BME280;51446;53.850;10.662;2022-12-07T00:39:07;101015.59;;;2.38;100.00
64933;BME280;51446;53.850;10.662;2022-12-07T00:41:33;101002.22;;;2.30;100.00
64933;BME280;51446;53.850;10.662;2022-12-07T00:43:58;101011.84;;;2.16;100.00
64933;BME280;51446;53.850;10.662;2022-12-07T00:46:24;101004.66;;;2.11;100.00
64933;BME280;51446;53.850;10.662;2022-12-07T00:48:51;101003.25;;;2.01;100.00
64933;BME280;51446;53.850;10.662;2022-12-07T00:51:18;101013.38;;;2.13;100.00
64933;BME280;51446;53.850;10.662;2022-12-07T00:53:43;101021.03;;;1.95;100.00
64933;BME280;51446;53.850;10.662;2022-12-07T00:56:12;101006.88;;;2.04;100.00
64933;BME280;51446;53.850;10.662;2022-12-07T00:58:37;101010.69;;;1.95;100.00
64933;BME280;51446;53.850;10.662;2022-12-07T01:01:04;101008.91;;;1.94;100.00
64933;BME280;51446;53.850;10.662;2022-12-07T01:03:30;100999.72;;;2.15;100.00
64933;BME280;51446;53.850;10.662;2022-12-07T01:05:56;100996.50;;;2.19;100.00
64933;BME280;51446;53.850;10.662;2022-12-07T01:08:23;100981.78;;;2.18;100.00
64933;BME280;51446;53.850;10.662;2022-12-07T01:10:49;100985.66;;;2.27;100.00
64933;BME280;51446;53.850;10.662;2022-12-07T01:13:14;100974.59;;;2.29;100.00
64933;BME280;51446;53.850;10.662;2022-12-07T01:15:44;100975.16;;;2.23;100.00
64933;BME280;51446;53.850;10.662;2022-12-07T01:18:10;100968.34;;;2.25;100.00
64933;BME280;51446;53.850;10.662;2022-12-07T01:20:36;100976.19;;;2.11;100.00
64933;BME280;51446;53.850;10.662;2022-12-07T01:23:01;100979.44;;;2.06;100.00
64933;BME280;51446;53.850;10.662;2022-12-07T01:25:27;100978.94;;;2.14;100.00
64933;BME280;51446;53.850;10.662;2022-12-07T01:27:52;100980.69;;;1.98;100.00
64933;BME280;51446;53.850;10.662;2022-12-07T01:30:17;100980.16;;;2.04;100.00
64933;BME280;51446;53.850;10.662;2022-12-07T01:32:42;100974.41;;;2.10;100.00
64933;BME280;51446;53.850;10.662;2022-12-07T01:35:08;100958.09;;;2.11;100.00
64933;BME280;51446;53.850;10.662;2022-12-07T01:37:37;100965.38;;;2.18;100.00
64933;BME280;51446;53.850;10.662;2022-12-07T01:40:04;100955.09;;;2.19;100.00
64933;BME280;51446;53.850;10.662;2022-12-07T01:42:30;100952.03;;;2.27;100.00
64933;BME280;51446;53.850;10.662;2022-12-07T01:47:46;100952.25;;;2.31;100.00
64933;BME280;51446;53.850;10.662;2022-12-07T01:50:12;100940.94;;;2.29;100.00
64933;BME280;51446;53.850;10.662;2022-12-07T01:52:39;100957.03;;;2.23;100.00
64933;BME280;51446;53.850;10.662;2022-12-07T01:55:08;100949.03;;;2.35;100.00
64933;BME280;51446;53.850;10.662;2022-12-07T01:57:37;100948.44;;;2.24;100.00
64933;BME280;51446;53.850;10.662;2022-12-07T02:00:06;100947.72;;;2.27;100.00
64933;BME280;51446;53.850;10.662;2022-12-07T02:02:36;100943.44;;;2.44;100.00
64933;BME280;51446;53.850;10.662;2022-12-07T02:05:04;100942.38;;;2.40;100.00
64933;BME280;51446;53.850;10.662;2022-12-07T02:07:31;100940.28;;;2.33;100.00
64933;BME280;51446;53.850;10.662;2022-12-07T02:10:21;100944.72;;;2.36;100.00
64933;BME280;51446;53.850;10.662;2022-12-07T02:12:54;100943.63;;;2.31;100.00
64933;BME280;51446;53.850;10.662;2022-12-07T02:15:22;100941.31;;;2.20;100.00
64933;BME280;51446;53.850;10.662;2022-12-07T02:18:16;100939.09;;;2.27;100.00
64933;BME280;51446;53.850;10.662;2022-12-07T02:21:15;100939.63;;;2.37;100.00
64933;BME280;51446;53.850;10.662;2022-12-07T02:32:06;100934.09;;;2.48;100.00
64933;BME280;51446;53.850;10.662;2022-12-07T02:34:42;100934.38;;;2.36;100.00
64933;BME280;51446;53.850;10.662;2022-12-07T02:37:20;100921.16;;;2.48;100.00
64933;BME280;51446;53.850;10.662;2022-12-07T02:40:14;100926.09;;;2.59;100.00
64933;BME280;51446;53.850;10.662;2022-12-07T02:42:46;100917.50;;;2.60;100.00
64933;BME280;51446;53.850;10.662;2022-12-07T02:45:15;100918.16;;;2.56;100.00
64933;BME280;51446;53.850;10.662;2022-12-07T02:47:43;100925.16;;;2.41;100.00
64933;BME280;51446;53.850;10.662;2022-12-07T02:50:09;100913.06;;;2.58;100.00
64933;BME280;51446;53.850;10.662;2022-12-07T02:52:35;100916.75;;;2.45;100.00
64933;BME280;51446;53.850;10.662;2022-12-07T02:55:00;100915.75;;;2.43;100.00
64933;BME280;51446;53.850;10.662;2022-12-07T02:57:42;100926.03;;;2.41;100.00
64933;BME280;51446;53.850;10.662;2022-12-07T03:00:14;100924.81;;;2.35;100.00
64933;BME280;51446;53.850;10.662;2022-12-07T03:05:31;100923.66;;;2.46;100.00
64933;BME280;51446;53.850;10.662;2022-12-07T03:11:06;100916.56;;;2.42;100.00
64933;BME280;51446;53.850;10.662;2022-12-07T03:13:40;100918.03;;;2.37;100.00
64933;BME280;51446;53.850;10.662;2022-12-07T03:16:25;100923.03;;;2.50;100.00
64933;BME280;51446;53.850;10.662;2022-12-07T03:18:58;100917.47;;;2.42;100.00
64933;BME280;51446;53.850;10.662;2022-12-07T03:21:33;100920.13;;;2.44;100.00
64933;BME280;51446;53.850;10.662;2022-12-07T03:24:04;100920.47;;;2.34;100.00
64933;BME280;51446;53.850;10.662;2022-12-07T03:26:34;100923.88;;;2.33;100.00
64933;BME280;51446;53.850;10.662;2022-12-07T03:29:05;100923.38;;;2.40;100.00
64933;BME280;51446;53.850;10.662;2022-12-07T03:31:35;100908.13;;;2.28;100.00
64933;BME280;51446;53.850;10.662;2022-12-07T03:34:11;100915.16;;;2.31;100.00
64933;BME280;51446;53.850;10.662;2022-12-07T03:36:43;100915.19;;;2.49;100.00
64933;BME280;51446;53.850;10.662;2022-12-07T03:39:20;100919.63;;;2.35;100.00
64933;BME280;51446;53.850;10.662;2022-12-07T03:41:48;100925.69;;;2.52;100.00
64933;BME280;51446;53.850;10.662;2022-12-07T03:44:15;100909.63;;;2.24;100.00
64933;BME280;51446;53.850;10.662;2022-12-07T03:47:04;100926.78;;;2.22;100.00
64933;BME280;51446;53.850;10.662;2022-12-07T03:49:43;100915.75;;;2.43;100.00
64933;BME280;51446;53.850;10.662;2022-12-07T03:52:29;100921.69;;;2.24;100.00
64933;BME280;51446;53.850;10.662;2022-12-07T03:55:02;100932.84;;;2.39;100.00
64933;BME280;51446;53.850;10.662;2022-12-07T03:57:31;100933.34;;;2.32;100.00
64933;BME280;51446;53.850;10.662;2022-12-07T03:59:58;100922.25;;;2.18;100.00
64933;BME280;51446;53.850;10.662;2022-12-07T04:02:25;100935.28;;;2.20;100.00
64933;BME280;51446;53.850;10.662;2022-12-07T04:04:52;100930.03;;;2.18;100.00
64933;BME280;51446;53.850;10.662;2022-12-07T04:07:17;100922.19;;;2.17;100.00
64933;BME280;51446;53.850;10.662;2022-12-07T04:09:43;100922.75;;;2.11;100.00
64933;BME280;51446;53.850;10.662;2022-12-07T04:12:08;100926.41;;;2.15;100.00
64933;BME280;51446;53.850;10.662;2022-12-07T04:14:33;100935.13;;;2.00;100.00
64933;BME280;51446;53.850;10.662;2022-12-07T04:16:59;100938.59;;;2.01;100.00
64933;BME280;51446;53.850;10.662;2022-12-07T04:19:27;100935.59;;;2.10;100.00
64933;BME280;51446;53.850;10.662;2022-12-07T04:21:52;100937.22;;;2.24;100.00
64933;BME280;51446;53.850;10.662;2022-12-07T04:24:18;100930.81;;;2.17;100.00
64933;BME280;51446;53.850;10.662;2022-12-07T04:26:45;100932.56;;;2.00;100.00
64933;BME280;51446;53.850;10.662;2022-12-07T04:29:11;100931.31;;;2.10;100.00
64933;BME280;51446;53.850;10.662;2022-12-07T04:31:36;100923.09;;;2.01;100.00
64933;BME280;51446;53.850;10.662;2022-12-07T04:34:03;100933.59;;;2.04;100.00
64933;BME280;51446;53.850;10.662;2022-12-07T04:36:28;100932.03;;;1.75;100.00
64933;BME280;51446;53.850;10.662;2022-12-07T04:38:54;100939.56;;;1.86;100.00
64933;BME280;51446;53.850;10.662;2022-12-07T04:41:20;100933.72;;;1.74;100.00
64933;BME280;51446;53.850;10.662;2022-12-07T04:43:55;100932.09;;;1.60;100.00
64933;BME280;51446;53.850;10.662;2022-12-07T04:46:23;100942.97;;;1.54;100.00
64933;BME280;51446;53.850;10.662;2022-12-07T04:48:49;100938.66;;;1.38;100.00
64933;BME280;51446;53.850;10.662;2022-12-07T04:51:19;100939.13;;;1.31;100.00
64933;BME280;51446;53.850;10.662;2022-12-07T04:53:45;100933.00;;;1.29;100.00
64933;BME280;51446;53.850;10.662;2022-12-07T04:56:10;100944.50;;;1.19;100.00
64933;BME280;51446;53.850;10.662;2022-12-07T04:58:35;100947.78;;;1.16;100.00
64933;BME280;51446;53.850;10.662;2022-12-07T05:01:01;100942.69;;;1.33;100.00
64933;BME280;51446;53.850;10.662;2022-12-07T05:03:26;100954.38;;;1.26;100.00
64933;BME280;51446;53.850;10.662;2022-12-07T05:05:51;100951.63;;;1.23;100.00
64933;BME280;51446;53.850;10.662;2022-12-07T05:08:16;100956.94;;;1.26;100.00
64933;BME280;51446;53.850;10.662;2022-12-07T05:10:42;100954.41;;;1.11;100.00
64933;BME280;51446;53.850;10.662;2022-12-07T05:13:07;100959.75;;;1.14;100.00
64933;BME280;51446;53.850;10.662;2022-12-07T05:15:32;100956.16;;;1.12;100.00
64933;BME280;51446;53.850;10.662;2022-12-07T05:17:57;100944.63;;;1.06;100.00
64933;BME280;51446;53.850;10.662;2022-12-07T05:20:23;100951.81;;;1.11;100.00
64933;BME280;51446;53.850;10.662;2022-12-07T05:22:48;100947.03;;;1.02;100.00
64933;BME280;51446;53.850;10.662;2022-12-07T05:25:13;100944.59;;;0.91;100.00
64933;BME280;51446;53.850;10.662;2022-12-07T05:27:38;100958.97;;;0.85;100.00
64933;BME280;51446;53.850;10.662;2022-12-07T05:30:05;100969.91;;;0.81;100.00
64933;BME280;51446;53.850;10.662;2022-12-07T05:32:30;100965.19;;;0.74;100.00
64933;BME280;51446;53.850;10.662;2022-12-07T05:34:56;100957.88;;;0.67;100.00
64933;BME280;51446;53.850;10.662;2022-12-07T05:37:21;100960.91;;;0.75;100.00
64933;BME280;51446;53.850;10.662;2022-12-07T05:39:46;100943.63;;;0.59;100.00
64933;BME280;51446;53.850;10.662;2022-12-07T05:42:11;100958.59;;;0.64;100.00
64933;BME280;51446;53.850;10.662;2022-12-07T05:44:37;100954.50;;;0.68;100.00
64933;BME280;51446;53.850;10.662;2022-12-07T05:47:02;100962.16;;;0.66;100.00
64933;BME280;51446;53.850;10.662;2022-12-07T05:49:28;100960.63;;;0.70;100.00
64933;BME280;51446;53.850;10.662;2022-12-07T05:51:53;100945.78;;;0.66;100.00
64933;BME280;51446;53.850;10.662;2022-12-07T05:54:19;100944.81;;;0.64;100.00
64933;BME280;51446;53.850;10.662;2022-12-07T05:56:45;100967.50;;;0.69;100.00
64933;BME280;51446;53.850;10.662;2022-12-07T05:59:10;100965.81;;;0.70;100.00
64933;BME280;51446;53.850;10.662;2022-12-07T06:01:49;100958.41;;;0.61;100.00
64933;BME280;51446;53.850;10.662;2022-12-07T06:04:14;100953.50;;;0.66;100.00
64933;BME280;51446;53.850;10.662;2022-12-07T06:06:39;100957.72;;;0.64;100.00
64933;BME280;51446;53.850;10.662;2022-12-07T06:09:04;100961.00;;;0.61;100.00
64933;BME280;51446;53.850;10.662;2022-12-07T06:11:30;100962.69;;;0.61;100.00
64933;BME280;51446;53.850;10.662;2022-12-07T06:14:14;100965.38;;;0.62;100.00
64933;BME280;51446;53.850;10.662;2022-12-07T06:16:39;100948.09;;;0.61;100.00
64933;BME280;51446;53.850;10.662;2022-12-07T06:19:04;100961.88;;;0.62;100.00
64933;BME280;51446;53.850;10.662;2022-12-07T06:21:30;100956.63;;;0.45;100.00
64933;BME280;51446;53.850;10.662;2022-12-07T06:23:55;100950.66;;;0.46;100.00
64933;BME280;51446;53.850;10.662;2022-12-07T06:26:21;100951.38;;;0.44;100.00
64933;BME280;51446;53.850;10.662;2022-12-07T06:28:47;100954.56;;;0.55;100.00
64933;BME280;51446;53.850;10.662;2022-12-07T06:31:13;100948.97;;;0.47;100.00
64933;BME280;51446;53.850;10.662;2022-12-07T06:33:38;100944.16;;;0.38;100.00
64933;BME280;51446;53.850;10.662;2022-12-07T06:36:03;100950.28;;;0.40;100.00
64933;BME280;51446;53.850;10.662;2022-12-07T06:38:29;100954.66;;;0.41;100.00
64933;BME280;51446;53.850;10.662;2022-12-07T06:40:54;100956.69;;;0.32;100.00
64933;BME280;51446;53.850;10.662;2022-12-07T06:43:19;100943.19;;;1.42;100.00
64933;BME280;51446;53.850;10.662;2022-12-07T06:45:45;100951.69;;;1.87;100.00
64933;BME280;51446;53.850;10.662;2022-12-07T06:48:10;100949.53;;;1.01;100.00
64933;BME280;51446;53.850;10.662;2022-12-07T06:50:35;100957.53;;;0.76;100.00
64933;BME280;51446;53.850;10.662;2022-12-07T06:53:01;100961.44;;;0.54;100.00
64933;BME280;51446;53.850;10.662;2022-12-07T06:55:26;100955.75;;;0.60;100.00
64933;BME280;51446;53.850;10.662;2022-12-07T06:57:51;100957.25;;;0.56;100.00
64933;BME280;51446;53.850;10.662;2022-12-07T07:00:17;100969.09;;;0.52;100.00
64933;BME280;51446;53.850;10.662;2022-12-07T07:02:42;100964.53;;;0.48;100.00
64933;BME280;51446;53.850;10.662;2022-12-07T07:05:07;100957.22;;;0.41;100.00
64933;BME280;51446;53.850;10.662;2022-12-07T07:07:33;100964.00;;;0.54;100.00
64933;BME280;51446;53.850;10.662;2022-12-07T07:09:59;100963.66;;;0.48;100.00
64933;BME280;51446;53.850;10.662;2022-12-07T07:12:24;100959.13;;;0.59;100.00
64933;BME280;51446;53.850;10.662;2022-12-07T07:14:50;100958.94;;;0.56;100.00
64933;BME280;51446;53.850;10.662;2022-12-07T07:17:15;100950.66;;;0.46;100.00
64933;BME280;51446;53.850;10.662;2022-12-07T07:19:40;100955.31;;;0.52;100.00
64933;BME280;51446;53.850;10.662;2022-12-07T07:22:06;100947.09;;;0.44;100.00
64933;BME280;51446;53.850;10.662;2022-12-07T07:24:31;100958.16;;;0.57;100.00
64933;BME280;51446;53.850;10.662;2022-12-07T07:26:56;100966.59;;;0.54;100.00
64933;BME280;51446;53.850;10.662;2022-12-07T07:29:22;100959.09;;;0.44;100.00
64933;BME280;51446;53.850;10.662;2022-12-07T07:31:47;100969.41;;;0.29;100.00
64933;BME280;51446;53.850;10.662;2022-12-07T07:34:12;100945.38;;;0.30;100.00
64933;BME280;51446;53.850;10.662;2022-12-07T07:36:37;100962.72;;;0.32;100.00
64933;BME280;51446;53.850;10.662;2022-12-07T07:39:03;100955.25;;;0.22;100.00
64933;BME280;51446;53.850;10.662;2022-12-07T07:41:28;100971.78;;;0.26;100.00
64933;BME280;51446;53.850;10.662;2022-12-07T07:43:54;100959.13;;;0.15;100.00
64933;BME280;51446;53.850;10.662;2022-12-07T07:46:19;100963.50;;;0.16;100.00
64933;BME280;51446;53.850;10.662;2022-12-07T07:48:44;100969.50;;;0.30;100.00
64933;BME280;51446;53.850;10.662;2022-12-07T07:51:09;100954.38;;;0.37;100.00
64933;BME280;51446;53.850;10.662;2022-12-07T07:53:35;100966.31;;;0.49;100.00
64933;BME280;51446;53.850;10.662;2022-12-07T07:56:00;100967.78;;;0.74;100.00
64933;BME280;51446;53.850;10.662;2022-12-07T07:58:25;100966.25;;;1.08;100.00
64933;BME280;51446;53.850;10.662;2022-12-07T08:00:51;100976.72;;;1.72;100.00
64933;BME280;51446;53.850;10.662;2022-12-07T08:03:16;100969.47;;;2.64;100.00
64933;BME280;51446;53.850;10.662;2022-12-07T08:05:41;100956.41;;;2.97;100.00
64933;BME280;51446;53.850;10.662;2022-12-07T08:08:06;100958.16;;;3.70;100.00
64933;BME280;51446;53.850;10.662;2022-12-07T08:10:32;100949.88;;;3.96;100.00
64933;BME280;51446;53.850;10.662;2022-12-07T08:12:58;100956.56;;;4.50;99.58
64933;BME280;51446;53.850;10.662;2022-12-07T08:15:45;100947.75;;;4.87;94.35
64933;BME280;51446;53.850;10.662;2022-12-07T08:18:11;100949.81;;;5.61;89.55
64933;BME280;51446;53.850;10.662;2022-12-07T08:20:39;100936.34;;;6.68;85.58
64933;BME280;51446;53.850;10.662;2022-12-07T08:23:05;100930.84;;;6.34;83.94
64933;BME280;51446;53.850;10.662;2022-12-07T08:25:31;100939.84;;;6.18;83.33
64933;BME280;51446;53.850;10.662;2022-12-07T08:27:58;100943.66;;;6.04;82.91
64933;BME280;51446;53.850;10.662;2022-12-07T08:30:23;100928.69;;;5.30;84.79
64933;BME280;51446;53.850;10.662;2022-12-07T08:32:48;100936.44;;;4.65;88.54
64933;BME280;51446;53.850;10.662;2022-12-07T08:35:15;100944.56;;;4.32;91.52
64933;BME280;51446;53.850;10.662;2022-12-07T08:37:40;100946.25;;;3.55;97.78
64933;BME280;51446;53.850;10.662;2022-12-07T08:40:07;100946.94;;;3.15;99.96
64933;BME280;51446;53.850;10.662;2022-12-07T08:42:33;100944.78;;;2.88;100.00
64933;BME280;51446;53.850;10.662;2022-12-07T08:45:12;100950.19;;;2.58;100.00
64933;BME280;51446;53.850;10.662;2022-12-07T08:48:04;100956.72;;;2.01;100.00
64933;BME280;51446;53.850;10.662;2022-12-07T08:50:28;100951.53;;;2.17;100.00
64933;BME280;51446;53.850;10.662;2022-12-07T08:52:55;100957.66;;;1.86;100.00
64933;BME280;51446;53.850;10.662;2022-12-07T08:55:22;100960.34;;;1.88;100.00
64933;BME280;51446;53.850;10.662;2022-12-07T08:57:48;100947.56;;;1.91;100.00
64933;BME280;51446;53.850;10.662;2022-12-07T09:00:14;100966.72;;;2.11;100.00
64933;BME280;51446;53.850;10.662;2022-12-07T09:02:39;100957.50;;;2.33;100.00
64933;BME280;51446;53.850;10.662;2022-12-07T09:05:05;100963.25;;;2.43;100.00
64933;BME280;51446;53.850;10.662;2022-12-07T09:07:32;100967.84;;;2.33;100.00
64933;BME280;51446;53.850;10.662;2022-12-07T09:09:58;100957.09;;;2.41;100.00
64933;BME280;51446;53.850;10.662;2022-12-07T09:12:24;100949.47;;;2.45;100.00
64933;BME280;51446;53.850;10.662;2022-12-07T09:14:49;100972.22;;;2.17;100.00
64933;BME280;51446;53.850;10.662;2022-12-07T09:17:14;100966.91;;;2.31;100.00
64933;BME280;51446;53.850;10.662;2022-12-07T09:19:39;100975.06;;;2.22;100.00
64933;BME280;51446;53.850;10.662;2022-12-07T09:22:06;100962.69;;;2.33;100.00
64933;BME280;51446;53.850;10.662;2022-12-07T09:24:32;100972.06;;;2.14;100.00
64933;BME280;51446;53.850;10.662;2022-12-07T09:26:58;100962.44;;;2.12;100.00
64933;BME280;51446;53.850;10.662;2022-12-07T09:29:23;100951.19;;;2.28;100.00
64933;BME280;51446;53.850;10.662;2022-12-07T09:31:48;100951.53;;;2.34;100.00
64933;BME280;51446;53.850;10.662;2022-12-07T09:34:14;100957.50;;;2.33;100.00
64933;BME280;51446;53.850;10.662;2022-12-07T09:36:39;100948.44;;;2.24;100.00
64933;BME280;51446;53.850;10.662;2022-12-07T09:39:04;100948.38;;;2.23;100.00
64933;BME280;51446;53.850;10.662;2022-12-07T09:41:31;100953.69;;;2.26;100.00
64933;BME280;51446;53.850;10.662;2022-12-07T09:44:04;100958.88;;;2.42;100.00
64933;BME280;51446;53.850;10.662;2022-12-07T09:46:37;100957.47;;;2.49;100.00
64933;BME280;51446;53.850;10.662;2022-12-07T09:49:04;100956.13;;;2.39;100.00
64933;BME280;51446;53.850;10.662;2022-12-07T09:51:31;100959.38;;;2.35;100.00
64933;BME280;51446;53.850;10.662;2022-12-07T09:53:57;100953.56;;;2.39;100.00
64933;BME280;51446;53.850;10.662;2022-12-07T09:56:23;100952.97;;;2.29;100.00
64933;BME280;51446;53.850;10.662;2022-12-07T09:58:50;100959.06;;;2.29;100.00
64933;BME280;51446;53.850;10.662;2022-12-07T10:01:19;100957.66;;;2.36;100.00
64933;BME280;51446;53.850;10.662;2022-12-07T10:03:50;100958.56;;;2.36;100.00
64933;BME280;51446;53.850;10.662;2022-12-07T10:06:16;100952.91;;;2.27;100.00
64933;BME280;51446;53.850;10.662;2022-12-07T10:08:42;100955.97;;;2.36;100.00
64933;BME280;51446;53.850;10.662;2022-12-07T10:11:08;100958.06;;;2.27;100.00
64933;BME280;51446;53.850;10.662;2022-12-07T10:13:46;100953.78;;;2.28;100.00
64933;BME280;51446;53.850;10.662;2022-12-07T10:16:39;100956.75;;;2.52;100.00
64933;BME280;51446;53.850;10.662;2022-12-07T10:19:25;100955.97;;;2.36;100.00
64933;BME280;51446;53.850;10.662;2022-12-07T10:24:26;100954.56;;;2.59;100.00
64933;BME280;51446;53.850;10.662;2022-12-07T10:26:52;100962.94;;;2.72;100.00
64933;BME280;51446;53.850;10.662;2022-12-07T10:29:30;100950.03;;;2.90;99.62
64933;BME280;51446;53.850;10.662;2022-12-07T10:32:23;100953.66;;;2.75;97.12
64933;BME280;51446;53.850;10.662;2022-12-07T10:34:51;100951.78;;;2.73;96.47
64933;BME280;51446;53.850;10.662;2022-12-07T10:37:40;100943.72;;;2.85;97.59
64933;BME280;51446;53.850;10.662;2022-12-07T10:40:24;100933.78;;;3.10;96.42
64933;BME280;51446;53.850;10.662;2022-12-07T10:59:28;100935.41;;;3.08;98.69
64933;BME280;51446;53.850;10.662;2022-12-07T11:04:49;100935.88;;;3.73;95.52
64933;BME280;51446;53.850;10.662;2022-12-07T11:10:34;100928.50;;;3.82;93.05
64933;BME280;51446;53.850;10.662;2022-12-07T11:13:24;100929.97;;;3.58;94.98
64933;BME280;51446;53.850;10.662;2022-12-07T11:18:33;100918.38;;;3.69;94.59
64933;BME280;51446;53.850;10.662;2022-12-07T11:23:50;100918.72;;;3.57;94.81
64933;BME280;51446;53.850;10.662;2022-12-07T11:26:38;100911.94;;;3.23;93.76
64933;BME280;51446;53.850;10.662;2022-12-07T11:34:39;100902.16;;;3.18;92.74
64933;BME280;51446;53.850;10.662;2022-12-07T11:37:18;100901.88;;;3.11;91.71
64933;BME280;51446;53.850;10.662;2022-12-07T11:40:03;100895.25;;;3.18;91.70
64933;BME280;51446;53.850;10.662;2022-12-07T11:42:35;100896.59;;;2.92;90.69
64933;BME280;51446;53.850;10.662;2022-12-07T11:45:12;100892.38;;;3.12;89.67
64933;BME280;51446;53.850;10.662;2022-12-07T11:47:47;100895.13;;;3.15;89.81
64933;BME280;51446;53.850;10.662;2022-12-07T11:53:34;100879.72;;;2.82;89.68
64933;BME280;51446;53.850;10.662;2022-12-07T12:01:24;100884.47;;;3.09;90.23
64933;BME280;51446;53.850;10.662;2022-12-07T12:06:43;100879.59;;;2.97;88.25
64933;BME280;51446;53.850;10.662;2022-12-07T12:09:16;100866.84;;;2.84;86.46
64933;BME280;51446;53.850;10.662;2022-12-07T12:17:51;100867.44;;;2.96;86.94
64933;BME280;51446;53.850;10.662;2022-12-07T12:20:38;100875.13;;;3.12;85.68
64933;BME280;51446;53.850;10.662;2022-12-07T12:23:14;100860.78;;;2.83;84.46
64933;BME280;51446;53.850;10.662;2022-12-07T12:25:46;100879.28;;;2.91;84.64
64933;BME280;51446;53.850;10.662;2022-12-07T12:28:23;100876.09;;;2.78;83.04
64933;BME280;51446;53.850;10.662;2022-12-07T12:33:32;100871.22;;;2.85;82.59
64933;BME280;51446;53.850;10.662;2022-12-07T12:46:55;100854.19;;;2.54;81.91
64933;BME280;51446;53.850;10.662;2022-12-07T12:51:50;100858.94;;;2.63;80.86
64933;BME280;51446;53.850;10.662;2022-12-07T12:56:51;100860.72;;;2.64;81.79
64933;BME280;51446;53.850;10.662;2022-12-07T12:59:25;100863.75;;;2.73;81.72
64933;BME280;51446;53.850;10.662;2022-12-07T13:01:56;100856.44;;;2.48;82.69
64933;BME280;51446;53.850;10.662;2022-12-07T13:04:49;100866.03;;;2.67;83.88
64933;BME280;51446;53.850;10.662;2022-12-07T13:20:52;100857.66;;;2.36;84.33
64933;BME280;51446;53.850;10.662;2022-12-07T13:23:21;100873.81;;;2.32;84.71
64933;BME280;51446;53.850;10.662;2022-12-07T13:28:40;100871.88;;;2.28;84.43
64933;BME280;51446;53.850;10.662;2022-12-07T13:33:36;100879.34;;;2.22;84.88
64933;BME280;51446;53.850;10.662;2022-12-07T13:36:01;100881.75;;;2.19;83.49
64933;BME280;51446;53.850;10.662;2022-12-07T13:38:30;100874.97;;;2.04;82.37
64933;BME280;51446;53.850;10.662;2022-12-07T13:41:05;100876.75;;;2.05;81.98
64933;BME280;51446;53.850;10.662;2022-12-07T13:43:51;100875.72;;;2.02;80.75
64933;BME280;51446;53.850;10.662;2022-12-07T13:46:24;100882.66;;;2.03;79.91
64933;BME280;51446;53.850;10.662;2022-12-07T13:48:51;100886.06;;;2.02;80.16
64933;BME280;51446;53.850;10.662;2022-12-07T13:51:27;100884.06;;;1.96;78.94
64933;BME280;51446;53.850;10.662;2022-12-07T13:54:06;100885.59;;;2.09;78.30
64933;BME280;51446;53.850;10.662;2022-12-07T13:56:34;100884.06;;;1.96;78.67
64933;BME280;51446;53.850;10.662;2022-12-07T13:59:00;100876.38;;;1.98;78.08
64933;BME280;51446;53.850;10.662;2022-12-07T14:01:26;100886.38;;;1.91;78.51
64933;BME280;51446;53.850;10.662;2022-12-07T14:03:51;100885.00;;;1.98;78.08
64933;BME280;51446;53.850;10.662;2022-12-07T14:06:25;100893.41;;;1.94;78.22
64933;BME280;51446;53.850;10.662;2022-12-07T14:09:27;100896.63;;;1.90;79.79
64933;BME280;51446;53.850;10.662;2022-12-07T14:11:55;100893.66;;;1.99;78.64
64933;BME280;51446;53.850;10.662;2022-12-07T14:14:46;100883.41;;;1.67;79.66
64933;BME280;51446;53.850;10.662;2022-12-07T14:17:19;100897.94;;;1.82;79.98
64933;BME280;51446;53.850;10.662;2022-12-07T14:19:55;100889.06;;;1.77;79.73
64933;BME280;51446;53.850;10.662;2022-12-07T14:22:34;100900.88;;;1.71;80.64
64933;BME280;51446;53.850;10.662;2022-12-07T14:27:38;100884.34;;;1.53;80.29
64933;BME280;51446;53.850;10.662;2022-12-07T14:30:04;100893.47;;;1.63;80.44
64933;BME280;51446;53.850;10.662;2022-12-07T14:32:31;100895.00;;;1.59;81.34
64933;BME280;51446;53.850;10.662;2022-12-07T14:35:11;100894.63;;;1.51;82.72
64933;BME280;51446;53.850;10.662;2022-12-07T14:37:39;100883.91;;;1.45;81.34
64933;BME280;51446;53.850;10.662;2022-12-07T14:40:05;100887.88;;;1.38;82.28
64933;BME280;51446;53.850;10.662;2022-12-07T14:42:31;100897.06;;;1.33;82.84
64933;BME280;51446;53.850;10.662;2022-12-07T14:44:58;100895.47;;;1.35;83.27